sensor_id;sensor_type;location;lat;lon;timestamp;pressure;altitude;pressure_sealevel;temperature;humidity
24858;BME280;12935;50.782;6.074;2023-01-25T00:01:18;101427.38;;;1.79;100.00
24858;BME280;12935;50.782;6.074;2023-01-25T00:03:44;101426.13;;;1.71;100.00
24858;BME280;12935;50.782;6.074;2023-01-25T00:06:09;101424.34;;;1.62;100.00
24858;BME280;12935;50.782;6.074;2023-01-25T00:08:34;101422.63;;;1.47;100.00
24858;BME280;12935;50.782;6.074;2023-01-25T00:10:59;101415.22;;;1.58;100.00
24858;BME280;12935;50.782;6.074;2023-01-25T00:13:25;101424.34;;;1.62;100.00
24858;BME280;12935;50.782;6.074;2023-01-25T00:15:51;101414.78;;;1.51;100.00
24858;BME280;12935;50.782;6.074;2023-01-25T00:18:16;101410.09;;;1.32;100.00
24858;BME280;12935;50.782;6.074;2023-01-25T00:20:41;101412.25;;;1.35;100.00
24858;BME280;12935;50.782;6.074;2023-01-25T00:23:07;101410.00;;;1.42;100.00
24858;BME280;12935;50.782;6.074;2023-01-25T00:25:32;101412.06;;;1.51;100.00
24858;BME280;12935;50.782;6.074;2023-01-25T00:27:57;101408.06;;;1.48;100.00
24858;BME280;12935;50.782;6.074;2023-01-25T00:30:22;101410.44;;;1.55;100.00
24858;BME280;12935;50.782;6.074;2023-01-25T00:32:56;101392.81;;;1.62;100.00
24858;BME280;12935;50.782;6.074;2023-01-25T00:35:22;101400.53;;;1.45;100.00
24858;BME280;12935;50.782;6.074;2023-01-25T00:37:51;101396.44;;;1.53;100.00
24858;BME280;12935;50.782;6.074;2023-01-25T00:40:17;101395.50;;;1.62;100.00
24858;BME280;12935;50.782;6.074;2023-01-25T00:42:42;101390.13;;;1.38;100.00
24858;BME280;12935;50.782;6.074;2023-01-25T00:45:09;101397.34;;;1.43;100.00
24858;BME280;12935;50.782;6.074;2023-01-25T00:47:35;101388.59;;;1.56;100.00
24858;BME280;12935;50.782;6.074;2023-01-25T00:50:00;101381.00;;;1.58;100.00
24858;BME280;12935;50.782;6.074;2023-01-25T00:52:26;101380.72;;;1.60;100.00
24858;BME280;12935;50.782;6.074;2023-01-25T00:54:52;101377.91;;;1.46;100.00
24858;BME280;12935;50.782;6.074;2023-01-25T00:57:18;101380.97;;;1.39;100.00
24858;BME280;12935;50.782;6.074;2023-01-25T00:59:43;101377.66;;;1.19;100.00
24858;BME280;12935;50.782;6.074;2023-01-25T01:02:10;101373.84;;;1.25;100.00
24858;BME280;12935;50.782;6.074;2023-01-25T01:04:36;101371.00;;;1.40;100.00
24858;BME280;12935;50.782;6.074;2023-01-25T01:07:02;101371.66;;;1.51;100.00
24858;BME280;12935;50.782;6.074;2023-01-25T01:09:27;101372.75;;;1.50;100.00
24858;BME280;12935;50.782;6.074;2023-01-25T01:11:52;101385.63;;;1.29;100.00
24858;BME280;12935;50.782;6.074;2023-01-25T01:14:19;101380.25;;;1.29;100.00
24858;BME280;12935;50.782;6.074;2023-01-25T01:16:45;101368.66;;;1.28;100.00
24858;BME280;12935;50.782;6.074;2023-01-25T01:19:11;101374.34;;;1.27;100.00
24858;BME280;12935;50.782;6.074;2023-01-25T01:21:36;101369.72;;;1.32;100.00
24858;BME280;12935;50.782;6.074;2023-01-25T01:24:02;101372.75;;;1.26;100.00
24858;BME280;12935;50.782;6.074;2023-01-25T01:26:27;101372.00;;;1.20;100.00
24858;BME280;12935;50.782;6.074;2023-01-25T01:28:52;101365.31;;;1.13;100.00
24858;BME280;12935;50.782;6.074;2023-01-25T01:31:20;101361.47;;;0.95;100.00
24858;BME280;12935;50.782;6.074;2023-01-25T01:33:55;101372.97;;;1.05;100.00
24858;BME280;12935;50.782;6.074;2023-01-25T01:36:22;101365.97;;;1.04;100.00
24858;BME280;12935;50.782;6.074;2023-01-25T01:38:48;101361.63;;;1.09;100.00
24858;BME280;12935;50.782;6.074;2023-01-25T01:41:14;101370.50;;;1.09;100.00
24858;BME280;12935;50.782;6.074;2023-01-25T01:43:40;101364.94;;;0.95;100.00
24858;BME280;12935;50.782;6.074;2023-01-25T01:46:13;101361.78;;;0.93;100.00
24858;BME280;12935;50.782;6.074;2023-01-25T01:53:55;101364.16;;;0.95;100.00
24858;BME280;12935;50.782;6.074;2023-01-25T01:56:33;101363.13;;;0.91;100.00
24858;BME280;12935;50.782;6.074;2023-01-25T01:59:01;101368.94;;;1.03;100.00
24858;BME280;12935;50.782;6.074;2023-01-25T02:01:29;101358.78;;;0.95;100.00
24858;BME280;12935;50.782;6.074;2023-01-25T02:03:54;101360.16;;;0.92;100.00
24858;BME280;12935;50.782;6.074;2023-01-25T02:06:31;101363.94;;;0.91;100.00
24858;BME280;12935;50.782;6.074;2023-01-25T02:08:59;101362.38;;;0.85;100.00
24858;BME280;12935;50.782;6.074;2023-01-25T02:11:26;101371.13;;;0.96;100.00
24858;BME280;12935;50.782;6.074;2023-01-25T02:13:53;101363.06;;;0.96;100.00
24858;BME280;12935;50.782;6.074;2023-01-25T02:16:26;101363.16;;;1.15;100.00
24858;BME280;12935;50.782;6.074;2023-01-25T02:18:53;101361.34;;;1.10;100.00
24858;BME280;12935;50.782;6.074;2023-01-25T02:21:21;101366.13;;;1.13;100.00
24858;BME280;12935;50.782;6.074;2023-01-25T02:23:53;101366.34;;;1.22;100.00
24858;BME280;12935;50.782;6.074;2023-01-25T02:26:21;101364.97;;;1.24;100.00
24858;BME280;12935;50.782;6.074;2023-01-25T02:29:03;101360.72;;;1.18;100.00
24858;BME280;12935;50.782;6.074;2023-01-25T02:31:30;101356.94;;;1.19;100.00
24858;BME280;12935;50.782;6.074;2023-01-25T02:33:55;101360.16;;;1.21;100.00
24858;BME280;12935;50.782;6.074;2023-01-25T02:36:24;101357.09;;;1.28;100.00
24858;BME280;12935;50.782;6.074;2023-01-25T02:39:03;101358.38;;;1.35;100.00
24858;BME280;12935;50.782;6.074;2023-01-25T02:41:38;101346.13;;;0.95;100.00
24858;BME280;12935;50.782;6.074;2023-01-25T02:44:06;101348.09;;;0.85;100.00
24858;BME280;12935;50.782;6.074;2023-01-25T02:46:35;101346.03;;;1.05;100.00
24858;BME280;12935;50.782;6.074;2023-01-25T02:49:02;101344.56;;;1.18;100.00
24858;BME280;12935;50.782;6.074;2023-01-25T02:51:30;101344.22;;;1.25;100.00
24858;BME280;12935;50.782;6.074;2023-01-25T02:53:56;101348.91;;;1.14;100.00
24858;BME280;12935;50.782;6.074;2023-01-25T02:56:22;101343.59;;;1.09;100.00
24858;BME280;12935;50.782;6.074;2023-01-25T02:58:47;101348.38;;;1.12;100.00
24858;BME280;12935;50.782;6.074;2023-01-25T03:01:13;101349.94;;;1.18;100.00
24858;BME280;12935;50.782;6.074;2023-01-25T03:03:38;101343.41;;;1.24;100.00
24858;BME280;12935;50.782;6.074;2023-01-25T03:06:04;101335.56;;;1.04;100.00
24858;BME280;12935;50.782;6.074;2023-01-25T03:08:30;101326.69;;;0.75;100.00
24858;BME280;12935;50.782;6.074;2023-01-25T03:11:01;101341.47;;;0.77;100.00
24858;BME280;12935;50.782;6.074;2023-01-25T03:13:27;101341.13;;;0.84;100.00
24858;BME280;12935;50.782;6.074;2023-01-25T03:15:58;101339.59;;;1.01;100.00
24858;BME280;12935;50.782;6.074;2023-01-25T03:18:24;101338.81;;;1.01;100.00
24858;BME280;12935;50.782;6.074;2023-01-25T03:20:49;101338.63;;;0.92;100.00
24858;BME280;12935;50.782;6.074;2023-01-25T03:23:15;101337.75;;;0.97;100.00
24858;BME280;12935;50.782;6.074;2023-01-25T03:25:40;101337.59;;;1.12;100.00
24858;BME280;12935;50.782;6.074;2023-01-25T03:28:05;101338.25;;;1.28;100.00
24858;BME280;12935;50.782;6.074;2023-01-25T03:30:30;101343.81;;;1.36;100.00
24858;BME280;12935;50.782;6.074;2023-01-25T03:32:56;101336.53;;;1.37;100.00
24858;BME280;12935;50.782;6.074;2023-01-25T03:35:21;101339.44;;;1.17;100.00
24858;BME280;12935;50.782;6.074;2023-01-25T03:37:46;101338.28;;;0.99;100.00
24858;BME280;12935;50.782;6.074;2023-01-25T03:40:12;101342.50;;;1.10;100.00
24858;BME280;12935;50.782;6.074;2023-01-25T03:42:37;101337.28;;;1.19;100.00
24858;BME280;12935;50.782;6.074;2023-01-25T03:45:03;101335.34;;;1.24;100.00
24858;BME280;12935;50.782;6.074;2023-01-25T03:47:29;101331.72;;;1.34;100.00
24858;BME280;12935;50.782;6.074;2023-01-25T03:49:54;101335.22;;;1.34;100.00
24858;BME280;12935;50.782;6.074;2023-01-25T03:52:20;101329.44;;;1.22;100.00
24858;BME280;12935;50.782;6.074;2023-01-25T03:54:45;101326.19;;;1.25;100.00
24858;BME280;12935;50.782;6.074;2023-01-25T03:57:10;101329.19;;;1.19;100.00
24858;BME280;12935;50.782;6.074;2023-01-25T03:59:36;101321.59;;;1.26;100.00
24858;BME280;12935;50.782;6.074;2023-01-25T04:02:02;101324.97;;;1.36;100.00
24858;BME280;12935;50.782;6.074;2023-01-25T04:04:27;101322.97;;;1.23;100.00
24858;BME280;12935;50.782;6.074;2023-01-25T04:06:52;101320.19;;;1.28;100.00
24858;BME280;12935;50.782;6.074;2023-01-25T04:09:18;101321.25;;;1.32;100.00
24858;BME280;12935;50.782;6.074;2023-01-25T04:11:43;101315.22;;;1.40;100.00
24858;BME280;12935;50.782;6.074;2023-01-25T04:14:09;101308.00;;;1.36;100.00
24858;BME280;12935;50.782;6.074;2023-01-25T04:16:34;101306.53;;;1.25;100.00
24858;BME280;12935;50.782;6.074;2023-01-25T04:19:00;101303.31;;;1.23;100.00
24858;BME280;12935;50.782;6.074;2023-01-25T04:21:25;101299.97;;;1.31;100.00
24858;BME280;12935;50.782;6.074;2023-01-25T04:23:50;101302.06;;;1.39;100.00
24858;BME280;12935;50.782;6.074;2023-01-25T04:26:16;101295.06;;;1.38;100.00
24858;BME280;12935;50.782;6.074;2023-01-25T04:28:41;101299.88;;;1.41;100.00
24858;BME280;12935;50.782;6.074;2023-01-25T04:31:06;101305.19;;;1.46;100.00
24858;BME280;12935;50.782;6.074;2023-01-25T04:33:32;101294.94;;;1.48;100.00
24858;BME280;12935;50.782;6.074;2023-01-25T04:35:58;101295.16;;;1.52;100.00
24858;BME280;12935;50.782;6.074;2023-01-25T04:38:24;101285.47;;;1.27;100.00
24858;BME280;12935;50.782;6.074;2023-01-25T04:40:50;101303.13;;;1.38;100.00
24858;BME280;12935;50.782;6.074;2023-01-25T04:43:16;101294.50;;;1.41;100.00
24858;BME280;12935;50.782;6.074;2023-01-25T04:45:42;101285.28;;;1.42;100.00
24858;BME280;12935;50.782;6.074;2023-01-25T04:48:09;101293.28;;;1.28;100.00
24858;BME280;12935;50.782;6.074;2023-01-25T04:50:36;101285.09;;;1.15;100.00
24858;BME280;12935;50.782;6.074;2023-01-25T04:53:02;101285.78;;;1.25;100.00
24858;BME280;12935;50.782;6.074;2023-01-25T04:55:27;101281.06;;;1.12;100.00
24858;BME280;12935;50.782;6.074;2023-01-25T04:57:53;101273.59;;;1.09;100.00
24858;BME280;12935;50.782;6.074;2023-01-25T05:00:19;101279.31;;;1.02;100.00
24858;BME280;12935;50.782;6.074;2023-01-25T05:02:44;101277.34;;;0.84;100.00
24858;BME280;12935;50.782;6.074;2023-01-25T05:05:10;101267.94;;;0.82;100.00
24858;BME280;12935;50.782;6.074;2023-01-25T05:07:35;101261.19;;;0.84;100.00
24858;BME280;12935;50.782;6.074;2023-01-25T05:10:00;101267.75;;;0.78;100.00
24858;BME280;12935;50.782;6.074;2023-01-25T05:12:26;101269.28;;;0.84;100.00
24858;BME280;12935;50.782;6.074;2023-01-25T05:14:51;101264.66;;;0.90;100.00
24858;BME280;12935;50.782;6.074;2023-01-25T05:17:17;101268.66;;;0.63;100.00
24858;BME280;12935;50.782;6.074;2023-01-25T05:19:42;101268.09;;;0.38;100.00
24858;BME280;12935;50.782;6.074;2023-01-25T05:22:12;101268.38;;;0.65;100.00
24858;BME280;12935;50.782;6.074;2023-01-25T05:24:38;101265.13;;;0.68;100.00
24858;BME280;12935;50.782;6.074;2023-01-25T05:27:07;101264.13;;;0.30;100.00
24858;BME280;12935;50.782;6.074;2023-01-25T05:29:38;101259.09;;;0.18;100.00
24858;BME280;12935;50.782;6.074;2023-01-25T05:32:24;101259.22;;;0.37;100.00
24858;BME280;12935;50.782;6.074;2023-01-25T05:34:49;101253.78;;;0.47;100.00
24858;BME280;12935;50.782;6.074;2023-01-25T05:37:17;101251.81;;;0.24;100.00
24858;BME280;12935;50.782;6.074;2023-01-25T05:39:43;101245.78;;;0.03;100.00
24858;BME280;12935;50.782;6.074;2023-01-25T05:42:13;101245.09;;;0.21;100.00
24858;BME280;12935;50.782;6.074;2023-01-25T05:44:39;101249.31;;;0.32;100.00
24858;BME280;12935;50.782;6.074;2023-01-25T05:47:05;101243.47;;;0.54;100.00
24858;BME280;12935;50.782;6.074;2023-01-25T05:49:31;101242.75;;;0.73;100.00
24858;BME280;12935;50.782;6.074;2023-01-25T05:51:56;101240.75;;;0.83;100.00
24858;BME280;12935;50.782;6.074;2023-01-25T05:54:21;101235.84;;;0.90;100.00
24858;BME280;12935;50.782;6.074;2023-01-25T05:56:48;101237.91;;;0.75;100.00
24858;BME280;12935;50.782;6.074;2023-01-25T05:59:14;101235.94;;;0.56;100.00
24858;BME280;12935;50.782;6.074;2023-01-25T06:01:39;101239.75;;;0.50;100.00
24858;BME280;12935;50.782;6.074;2023-01-25T06:04:05;101237.66;;;0.71;100.00
24858;BME280;12935;50.782;6.074;2023-01-25T06:06:30;101233.88;;;0.72;100.00
24858;BME280;12935;50.782;6.074;2023-01-25T06:08:55;101239.94;;;0.59;100.00
24858;BME280;12935;50.782;6.074;2023-01-25T06:11:23;101234.97;;;0.71;100.00
24858;BME280;12935;50.782;6.074;2023-01-25T06:13:49;101239.16;;;0.82;100.00
24858;BME280;12935;50.782;6.074;2023-01-25T06:16:16;101236.66;;;0.91;100.00
24858;BME280;12935;50.782;6.074;2023-01-25T06:18:42;101244.66;;;0.96;100.00
24858;BME280;12935;50.782;6.074;2023-01-25T06:21:08;101238.47;;;0.95;100.00
24858;BME280;12935;50.782;6.074;2023-01-25T06:23:33;101239.84;;;0.93;100.00
24858;BME280;12935;50.782;6.074;2023-01-25T06:26:04;101235.31;;;0.88;100.00
24858;BME280;12935;50.782;6.074;2023-01-25T06:28:34;101240.13;;;0.91;100.00
24858;BME280;12935;50.782;6.074;2023-01-25T06:31:10;101240.50;;;0.80;100.00
24858;BME280;12935;50.782;6.074;2023-01-25T06:33:36;101234.59;;;0.54;100.00
24858;BME280;12935;50.782;6.074;2023-01-25T06:36:04;101236.16;;;0.60;100.00
24858;BME280;12935;50.782;6.074;2023-01-25T06:38:30;101235.97;;;0.51;100.00
24858;BME280;12935;50.782;6.074;2023-01-25T06:41:03;101244.56;;;0.53;100.00
24858;BME280;12935;50.782;6.074;2023-01-25T06:43:30;101235.88;;;0.61;100.00
24858;BME280;12935;50.782;6.074;2023-01-25T06:46:00;101237.66;;;0.71;100.00
24858;BME280;12935;50.782;6.074;2023-01-25T06:48:26;101227.97;;;0.70;100.00
24858;BME280;12935;50.782;6.074;2023-01-25T06:50:57;101235.22;;;0.75;100.00
24858;BME280;12935;50.782;6.074;2023-01-25T06:53:24;101235.09;;;0.85;100.00
24858;BME280;12935;50.782;6.074;2023-01-25T06:55:59;101244.44;;;0.92;100.00
24858;BME280;12935;50.782;6.074;2023-01-25T06:58:25;101249.75;;;0.97;100.00
24858;BME280;12935;50.782;6.074;2023-01-25T07:00:51;101246.25;;;0.97;100.00
24858;BME280;12935;50.782;6.074;2023-01-25T07:03:16;101242.41;;;1.03;100.00
24858;BME280;12935;50.782;6.074;2023-01-25T07:05:41;101231.38;;;1.04;100.00
24858;BME280;12935;50.782;6.074;2023-01-25T07:08:07;101232.50;;;0.98;100.00
24858;BME280;12935;50.782;6.074;2023-01-25T07:10:32;101229.66;;;0.90;100.00
24858;BME280;12935;50.782;6.074;2023-01-25T07:12:57;101231.63;;;0.79;100.00
24858;BME280;12935;50.782;6.074;2023-01-25T07:15:23;101240.47;;;0.61;100.00
24858;BME280;12935;50.782;6.074;2023-01-25T07:17:48;101232.00;;;0.15;100.00
24858;BME280;12935;50.782;6.074;2023-01-25T07:20:14;101227.59;;;-0.05;100.00
24858;BME280;12935;50.782;6.074;2023-01-25T07:22:39;101225.84;;;-0.25;100.00
24858;BME280;12935;50.782;6.074;2023-01-25T07:25:04;101229.44;;;-0.40;100.00
24858;BME280;12935;50.782;6.074;2023-01-25T07:27:33;101228.88;;;-0.37;100.00
24858;BME280;12935;50.782;6.074;2023-01-25T07:29:59;101228.91;;;-0.47;100.00
24858;BME280;12935;50.782;6.074;2023-01-25T07:32:25;101227.63;;;-0.49;100.00
24858;BME280;12935;50.782;6.074;2023-01-25T07:34:50;101227.09;;;-0.56;100.00
24858;BME280;12935;50.782;6.074;2023-01-25T07:37:15;101228.16;;;-0.52;100.00
24858;BME280;12935;50.782;6.074;2023-01-25T07:39:41;101229.72;;;-0.46;100.00
24858;BME280;12935;50.782;6.074;2023-01-25T07:42:12;101230.28;;;-0.49;100.00
24858;BME280;12935;50.782;6.074;2023-01-25T07:44:37;101223.28;;;-0.45;100.00
24858;BME280;12935;50.782;6.074;2023-01-25T07:47:02;101236.38;;;-0.33;100.00
24858;BME280;12935;50.782;6.074;2023-01-25T07:49:28;101226.84;;;-0.16;100.00
24858;BME280;12935;50.782;6.074;2023-01-25T07:51:53;101238.38;;;-0.15;100.00
24858;BME280;12935;50.782;6.074;2023-01-25T07:54:18;101229.91;;;0.07;100.00
24858;BME280;12935;50.782;6.074;2023-01-25T07:56:44;101229.78;;;0.22;100.00
24858;BME280;12935;50.782;6.074;2023-01-25T07:59:09;101233.66;;;0.11;100.00
24858;BME280;12935;50.782;6.074;2023-01-25T08:01:35;101231.53;;;0.03;100.00
24858;BME280;12935;50.782;6.074;2023-01-25T08:04:02;101247.50;;;-0.11;100.00
24858;BME280;12935;50.782;6.074;2023-01-25T08:06:31;101236.28;;;-0.18;100.00
24858;BME280;12935;50.782;6.074;2023-01-25T08:09:01;101238.53;;;0.04;100.00
24858;BME280;12935;50.782;6.074;2023-01-25T08:11:28;101237.03;;;0.21;100.00
24858;BME280;12935;50.782;6.074;2023-01-25T08:13:54;101234.38;;;0.16;100.00
24858;BME280;12935;50.782;6.074;2023-01-25T08:16:21;101235.31;;;0.35;100.00
24858;BME280;12935;50.782;6.074;2023-01-25T08:18:48;101231.13;;;0.53;100.00
24858;BME280;12935;50.782;6.074;2023-01-25T08:21:14;101245.50;;;0.67;100.00
24858;BME280;12935;50.782;6.074;2023-01-25T08:23:39;101230.06;;;0.78;100.00
24858;BME280;12935;50.782;6.074;2023-01-25T08:26:06;101225.94;;;0.86;100.00
24858;BME280;12935;50.782;6.074;2023-01-25T08:28:32;101227.50;;;0.92;100.00
24858;BME280;12935;50.782;6.074;2023-01-25T08:31:05;101227.41;;;0.97;100.00
24858;BME280;12935;50.782;6.074;2023-01-25T08:33:31;101226.31;;;0.98;100.00
24858;BME280;12935;50.782;6.074;2023-01-25T08:35:56;101222.53;;;0.99;100.00
24858;BME280;12935;50.782;6.074;2023-01-25T08:38:22;101222.31;;;0.72;100.00
24858;BME280;12935;50.782;6.074;2023-01-25T08:40:47;101224.88;;;0.58;100.00
24858;BME280;12935;50.782;6.074;2023-01-25T08:43:12;101216.06;;;0.52;100.00
24858;BME280;12935;50.782;6.074;2023-01-25T08:45:38;101215.78;;;0.54;100.00
24858;BME280;12935;50.782;6.074;2023-01-25T08:48:03;101222.28;;;0.77;100.00
24858;BME280;12935;50.782;6.074;2023-01-25T08:50:28;101218.50;;;0.78;100.00
24858;BME280;12935;50.782;6.074;2023-01-25T08:52:54;101212.13;;;0.45;100.00
24858;BME280;12935;50.782;6.074;2023-01-25T08:55:19;101218.75;;;0.52;100.00
24858;BME280;12935;50.782;6.074;2023-01-25T08:57:44;101206.34;;;0.56;100.00
24858;BME280;12935;50.782;6.074;2023-01-25T09:00:10;101210.06;;;0.60;100.00
24858;BME280;12935;50.782;6.074;2023-01-25T09:02:35;101215.00;;;0.77;100.00
24858;BME280;12935;50.782;6.074;2023-01-25T09:05:01;101205.72;;;0.88;100.00
24858;BME280;12935;50.782;6.074;2023-01-25T09:07:26;101208.69;;;0.87;100.00
24858;BME280;12935;50.782;6.074;2023-01-25T09:09:51;101199.44;;;0.74;100.00
24858;BME280;12935;50.782;6.074;2023-01-25T09:12:17;101207.66;;;0.83;100.00
24858;BME280;12935;50.782;6.074;2023-01-25T09:14:42;101201.56;;;0.77;100.00
24858;BME280;12935;50.782;6.074;2023-01-25T09:17:08;101194.22;;;0.83;100.00
24858;BME280;12935;50.782;6.074;2023-01-25T09:19:34;101197.28;;;0.95;100.00
24858;BME280;12935;50.782;6.074;2023-01-25T09:22:00;101190.94;;;1.10;100.00
24858;BME280;12935;50.782;6.074;2023-01-25T09:24:26;101202.94;;;1.17;100.00
24858;BME280;12935;50.782;6.074;2023-01-25T09:26:51;101197.28;;;1.19;100.00
24858;BME280;12935;50.782;6.074;2023-01-25T09:29:16;101200.09;;;1.27;100.00
24858;BME280;12935;50.782;6.074;2023-01-25T09:31:42;101194.44;;;1.10;100.00
24858;BME280;12935;50.782;6.074;2023-01-25T09:34:11;101196.66;;;0.79;100.00
24858;BME280;12935;50.782;6.074;2023-01-25T09:36:37;101191.34;;;0.50;100.00
24858;BME280;12935;50.782;6.074;2023-01-25T09:39:03;101195.91;;;0.50;100.00
24858;BME280;12935;50.782;6.074;2023-01-25T09:45:11;101184.59;;;0.24;100.00
24858;BME280;12935;50.782;6.074;2023-01-25T09:47:17;101186.16;;;0.59;100.00
24858;BME280;12935;50.782;6.074;2023-01-25T09:55:16;101173.66;;;0.68;100.00
24858;BME280;12935;50.782;6.074;2023-01-25T09:57:44;101173.91;;;0.72;100.00
24858;BME280;12935;50.782;6.074;2023-01-25T10:00:15;101178.47;;;0.71;100.00
24858;BME280;12935;50.782;6.074;2023-01-25T10:02:53;101170.81;;;0.59;100.00
24858;BME280;12935;50.782;6.074;2023-01-25T10:05:22;101170.84;;;0.54;100.00
24858;BME280;12935;50.782;6.074;2023-01-25T10:08:02;101168.22;;;0.73;100.00
24858;BME280;12935;50.782;6.074;2023-01-25T10:12:59;101150.88;;;0.84;100.00
24858;BME280;12935;50.782;6.074;2023-01-25T10:15:34;101151.72;;;0.80;100.00
24858;BME280;12935;50.782;6.074;2023-01-25T10:23:53;101151.50;;;-0.01;100.00
24858;BME280;12935;50.782;6.074;2023-01-25T10:26:33;101153.16;;;-0.05;100.00
24858;BME280;12935;50.782;6.074;2023-01-25T10:29:11;101151.88;;;0.17;100.00
24858;BME280;12935;50.782;6.074;2023-01-25T10:31:53;101140.84;;;0.18;100.00
24858;BME280;12935;50.782;6.074;2023-01-25T10:36:47;101151.88;;;0.46;100.00
24858;BME280;12935;50.782;6.074;2023-01-25T10:39:14;101148.50;;;0.59;100.00
24858;BME280;12935;50.782;6.074;2023-01-25T10:41:42;101135.41;;;0.23;100.00
24858;BME280;12935;50.782;6.074;2023-01-25T10:44:11;101140.22;;;0.26;100.00
24858;BME280;12935;50.782;6.074;2023-01-25T10:49:27;101132.91;;;0.32;100.00
24858;BME280;12935;50.782;6.074;2023-01-25T10:51:54;101127.69;;;0.17;100.00
24858;BME280;12935;50.782;6.074;2023-01-25T10:54:21;101124.94;;;0.22;100.00
24858;BME280;12935;50.782;6.074;2023-01-25T10:56:46;101119.06;;;-0.09;100.00
24858;BME280;12935;50.782;6.074;2023-01-25T11:01:43;101113.00;;;0.09;100.00
24858;BME280;12935;50.782;6.074;2023-01-25T11:04:29;101109.38;;;-0.05;100.00
24858;BME280;12935;50.782;6.074;2023-01-25T11:06:54;101109.09;;;-0.04;100.00
24858;BME280;12935;50.782;6.074;2023-01-25T11:11:53;101106.91;;;-0.02;100.00
24858;BME280;12935;50.782;6.074;2023-01-25T11:14:22;101100.34;;;0.10;100.00
24858;BME280;12935;50.782;6.074;2023-01-25T11:16:48;101095.16;;;-0.11;100.00
24858;BME280;12935;50.782;6.074;2023-01-25T11:21:55;101096.44;;;-0.32;100.00
24858;BME280;12935;50.782;6.074;2023-01-25T11:24:26;101081.69;;;-0.34;100.00
24858;BME280;12935;50.782;6.074;2023-01-25T11:27:11;101082.69;;;-0.25;100.00
24858;BME280;12935;50.782;6.074;2023-01-25T11:29:36;101076.50;;;-0.26;100.00
24858;BME280;12935;50.782;6.074;2023-01-25T11:32:04;101064.06;;;-0.17;100.00
24858;BME280;12935;50.782;6.074;2023-01-25T11:34:34;101068.50;;;0.22;100.00
24858;BME280;12935;50.782;6.074;2023-01-25T11:42:20;101053.94;;;-0.25;100.00
24858;BME280;12935;50.782;6.074;2023-01-25T11:45:09;101051.88;;;-0.33;100.00
24858;BME280;12935;50.782;6.074;2023-01-25T11:47:56;101046.00;;;-0.11;100.00
24858;BME280;12935;50.782;6.074;2023-01-25T11:50:35;101039.22;;;-0.04;100.00
24858;BME280;12935;50.782;6.074;2023-01-25T11:53:32;101031.16;;;-0.04;100.00
24858;BME280;12935;50.782;6.074;2023-01-25T12:01:33;101008.88;;;-0.04;100.00
24858;BME280;12935;50.782;6.074;2023-01-25T12:06:58;101010.72;;;-0.28;100.00
24858;BME280;12935;50.782;6.074;2023-01-25T12:12:14;100994.88;;;-0.54;100.00
24858;BME280;12935;50.782;6.074;2023-01-25T12:15:04;100989.78;;;-0.55;100.00
24858;BME280;12935;50.782;6.074;2023-01-25T12:17:57;100980.38;;;-0.53;100.00
24858;BME280;12935;50.782;6.074;2023-01-25T12:23:34;100965.50;;;-0.45;100.00
24858;BME280;12935;50.782;6.074;2023-01-25T12:26:11;100946.19;;;-0.47;100.00
24858;BME280;12935;50.782;6.074;2023-01-25T12:31:24;100943.19;;;-0.41;100.00
24858;BME280;12935;50.782;6.074;2023-01-25T12:33:57;100927.25;;;-0.32;100.00
24858;BME280;12935;50.782;6.074;2023-01-25T12:36:29;100919.81;;;-0.40;100.00
24858;BME280;12935;50.782;6.074;2023-01-25T12:42:00;100904.66;;;-0.07;100.00
24858;BME280;12935;50.782;6.074;2023-01-25T12:44:42;100902.03;;;-0.12;100.00
24858;BME280;12935;50.782;6.074;2023-01-25T12:47:15;100895.75;;;-0.26;100.00
24858;BME280;12935;50.782;6.074;2023-01-25T12:52:51;100884.56;;;-0.33;100.00
24858;BME280;12935;50.782;6.074;2023-01-25T12:55:19;100885.94;;;-0.36;100.00
24858;BME280;12935;50.782;6.074;2023-01-25T12:58:05;100879.34;;;-0.25;100.00
24858;BME280;12935;50.782;6.074;2023-01-25T13:03:42;100859.28;;;0.29;100.00
24858;BME280;12935;50.782;6.074;2023-01-25T13:06:38;100846.38;;;0.31;100.00
24858;BME280;12935;50.782;6.074;2023-01-25T13:09:27;100837.94;;;0.00;100.00
24858;BME280;12935;50.782;6.074;2023-01-25T13:12:02;100837.41;;;-0.21;100.00
24858;BME280;12935;50.782;6.074;2023-01-25T13:14:30;100834.50;;;-0.24;100.00
24858;BME280;12935;50.782;6.074;2023-01-25T13:22:01;100820.28;;;0.13;100.00
24858;BME280;12935;50.782;6.074;2023-01-25T13:24:29;100817.50;;;0.37;100.00
24858;BME280;12935;50.782;6.074;2023-01-25T13:32:54;100804.13;;;0.64;100.00
24858;BME280;12935;50.782;6.074;2023-01-25T13:35:00;100810.16;;;0.75;100.00
24858;BME280;12935;50.782;6.074;2023-01-25T13:37:29;100799.59;;;0.78;100.00
24858;BME280;12935;50.782;6.074;2023-01-25T13:39:58;100789.94;;;0.45;100.00
24858;BME280;12935;50.782;6.074;2023-01-25T13:42:31;100792.72;;;0.40;100.00
24858;BME280;12935;50.782;6.074;2023-01-25T13:45:00;100792.72;;;0.21;100.00
24858;BME280;12935;50.782;6.074;2023-01-25T13:47:32;100790.22;;;-0.08;100.00
24858;BME280;12935;50.782;6.074;2023-01-25T13:50:17;100784.63;;;-0.12;100.00
24858;BME280;12935;50.782;6.074;2023-01-25T13:53:00;100787.97;;;-0.20;100.00
24858;BME280;12935;50.782;6.074;2023-01-25T13:55:27;100785.28;;;-0.20;100.00
24858;BME280;12935;50.782;6.074;2023-01-25T13:58:19;100779.34;;;-0.17;100.00
24858;BME280;12935;50.782;6.074;2023-01-25T14:01:00;100771.13;;;-0.07;100.00
24858;BME280;12935;50.782;6.074;2023-01-25T14:03:34;100771.25;;;0.02;100.00
24858;BME280;12935;50.782;6.074;2023-01-25T14:06:00;100766.72;;;0.16;100.00
24858;BME280;12935;50.782;6.074;2023-01-25T14:08:27;100769.63;;;0.20;100.00
24858;BME280;12935;50.782;6.074;2023-01-25T14:10:53;100759.84;;;0.29;100.00